Time;durP1;ratioP1;P1;durP2;ratioP2;P2;SDS_P1;SDS_P2;PMS_P1;PMS_P2;Temp;Humidity;BMP_temperature;BMP_pressure;BME280_temperature;BME280_humidity;BME280_pressure;Samples;Min_cycle;Max_cycle;Signal;HPM_P1;HPM_P2
2023/03/15 00:00:13;;;;;;;12.90;5.55;;;;;;;3.80;100.00;101049.56;6325558;22;20010;-68
2023/03/15 00:02:38;;;;;;;19.55;5.68;;;;;;;3.82;100.00;101066.22;6297943;22;20018;-70
2023/03/15 00:05:04;;;;;;;11.43;6.50;;;;;;;3.63;100.00;101071.19;6325258;22;20046;-67
2023/03/15 00:07:30;;;;;;;11.35;4.53;;;;;;;3.67;100.00;101071.97;6325975;22;20345;-69
2023/03/15 00:09:55;;;;;;;11.43;4.85;;;;;;;3.70;100.00;101077.13;6325730;22;20022;-69
2023/03/15 00:12:24;;;;;;;7.53;4.22;;;;;;;3.36;100.00;101067.59;6325342;22;20015;-69
2023/03/15 00:14:50;;;;;;;6.18;3.60;;;;;;;3.36;100.00;101076.41;6325347;22;20021;-68
2023/03/15 00:17:16;;;;;;;6.03;3.55;;;;;;;3.17;100.00;101075.22;6325397;22;20646;-68
2023/03/15 00:19:41;;;;;;;7.75;3.47;;;;;;;3.11;100.00;101067.47;6325477;22;20681;-68
2023/03/15 00:22:07;;;;;;;6.78;3.20;;;;;;;3.07;100.00;101077.25;6325665;22;20649;-69
2023/03/15 00:24:32;;;;;;;8.18;3.30;;;;;;;3.21;100.00;101074.19;6325340;22;20041;-68
2023/03/15 00:26:58;;;;;;;4.55;3.13;;;;;;;3.06;100.00;101072.00;6325756;22;20040;-69
2023/03/15 00:29:23;;;;;;;3.88;3.13;;;;;;;2.65;100.00;101079.28;6271682;22;20022;-69
2023/03/15 00:31:50;;;;;;;6.15;2.95;;;;;;;2.87;100.00;101071.69;6296802;22;20752;-68
2023/03/15 00:34:17;;;;;;;7.43;3.72;;;;;;;2.91;100.00;101075.06;6324879;22;20087;-69
2023/03/15 00:36:43;;;;;;;9.30;2.80;;;;;;;3.00;100.00;101070.41;6325192;22;20014;-68
2023/03/15 00:39:10;;;;;;;6.88;2.70;;;;;;;2.95;100.00;101071.47;6297011;22;20100;-68
2023/03/15 00:41:35;;;;;;;3.85;2.10;;;;;;;3.06;100.00;101072.91;6297087;22;20022;-67
2023/03/15 00:44:03;;;;;;;4.05;2.78;;;;;;;3.07;100.00;101065.84;6296888;22;20023;-69
2023/03/15 00:46:29;;;;;;;5.40;2.38;;;;;;;2.88;100.00;101090.97;6325075;22;20090;-69
2023/03/15 00:48:55;;;;;;;6.38;2.22;;;;;;;2.74;100.00;101097.47;6324569;22;20014;-69
2023/03/15 00:51:23;;;;;;;4.82;1.90;;;;;;;2.88;100.00;101102.38;6296232;22;20460;-69
2023/03/15 00:53:50;;;;;;;3.72;2.17;;;;;;;3.04;100.00;101103.66;6324888;22;20017;-68
2023/03/15 00:56:19;;;;;;;3.35;2.13;;;;;;;3.17;100.00;101088.41;6296730;22;20097;-69
2023/03/15 00:58:45;;;;;;;4.93;2.83;;;;;;;2.95;100.00;101096.03;6270908;22;20014;-68
2023/03/15 01:01:17;;;;;;;6.82;2.60;;;;;;;3.08;100.00;101101.81;6324234;22;20100;-68
2023/03/15 01:03:43;;;;;;;4.53;2.53;;;;;;;3.15;100.00;101102.50;6325211;22;20025;-68
2023/03/15 01:06:14;;;;;;;4.32;2.92;;;;;;;3.10;100.00;101106.13;6325398;22;20023;-69
2023/03/15 01:08:40;;;;;;;5.13;2.55;;;;;;;3.16;100.00;101104.22;6324441;22;20011;-69
2023/03/15 01:11:09;;;;;;;3.70;2.70;;;;;;;3.14;100.00;101103.41;6296827;22;20010;-69
2023/03/15 01:13:35;;;;;;;5.80;3.20;;;;;;;3.06;100.00;101107.16;6297198;22;20011;-69
2023/03/15 01:16:01;;;;;;;4.38;2.85;;;;;;;3.01;100.00;101114.31;6325565;22;20449;-69
2023/03/15 01:18:26;;;;;;;7.53;3.13;;;;;;;2.98;100.00;101116.16;6297166;22;20014;-72
2023/03/15 01:20:52;;;;;;;10.40;3.42;;;;;;;3.07;100.00;101115.91;6297096;22;20019;-71
2023/03/15 01:23:18;;;;;;;6.10;3.30;;;;;;;3.00;100.00;101124.88;6324475;22;20025;-67
2023/03/15 01:25:46;;;;;;;6.13;3.00;;;;;;;2.97;100.00;101128.47;6297281;22;20027;-69
2023/03/15 01:28:11;;;;;;;5.10;3.40;;;;;;;3.02;100.00;101136.25;6297341;22;20019;-69
2023/03/15 01:30:37;;;;;;;6.88;3.33;;;;;;;2.97;100.00;101119.72;6297153;22;20067;-67
2023/03/15 01:33:02;;;;;;;6.78;3.85;;;;;;;2.79;100.00;101127.19;6325547;22;20022;-70
2023/03/15 01:35:27;;;;;;;9.35;3.85;;;;;;;2.71;100.00;101126.53;6297105;22;20057;-68
2023/03/15 01:37:53;;;;;;;5.82;3.33;;;;;;;2.82;100.00;101137.66;6297413;22;20023;-68
2023/03/15 01:40:19;;;;;;;7.85;4.65;;;;;;;3.01;100.00;101139.75;6324902;22;20011;-69
2023/03/15 01:43:01;;;;;;;10.68;5.32;;;;;;;3.07;100.00;101148.38;6271429;22;20102;-68
2023/03/15 01:45:53;;;;;;;8.77;5.15;;;;;;;3.14;100.00;101132.41;6297084;22;20014;-68
2023/03/15 01:48:22;;;;;;;;;;;;;;;3.19;100.00;101134.00;6297700;22;20010;-69
2023/03/15 01:50:49;;;;;;;8.98;5.10;;;;;;;3.17;100.00;101146.38;6296726;22;20543;-69
2023/03/15 01:53:15;;;;;;;9.45;5.20;;;;;;;3.19;100.00;101146.31;6325038;22;20022;-69
2023/03/15 01:55:41;;;;;;;12.55;5.47;;;;;;;3.11;100.00;101155.31;6296037;22;20076;-68
2023/03/15 01:58:10;;;;;;;10.60;5.53;;;;;;;3.11;100.00;101155.31;6296643;22;20025;-69
2023/03/15 02:00:39;;;;;;;12.13;5.75;;;;;;;3.17;100.00;101164.81;6296296;22;20018;-68
2023/03/15 02:03:25;;;;;;;12.93;6.47;;;;;;;3.13;100.00;101159.66;6295432;22;20026;-69
2023/03/15 02:06:05;;;;;;;16.70;6.22;;;;;;;3.30;100.00;101153.00;6270873;22;20023;-67
2023/03/15 02:08:50;;;;;;;9.98;6.22;;;;;;;3.34;100.00;101159.06;6296721;22;20028;-68
2023/03/15 02:11:20;;;;;;;13.93;5.88;;;;;;;3.41;100.00;101167.63;6297576;22;20014;-68
2023/03/15 02:13:48;;;;;;;10.27;5.90;;;;;;;3.45;100.00;101156.97;6271402;22;20010;-68
2023/03/15 02:16:14;;;;;;;9.85;5.60;;;;;;;3.53;100.00;101164.66;6323151;22;20072;-68
2023/03/15 02:18:45;;;;;;;14.77;6.03;;;;;;;3.46;100.00;101163.97;6294623;22;20644;-69
2023/03/15 02:21:23;;;;;;;12.57;6.03;;;;;;;3.33;100.00;101170.50;6295355;22;20095;-68
2023/03/15 02:24:00;;;;;;;11.27;6.13;;;;;;;3.44;100.00;101167.56;6294376;22;20019;-67
2023/03/15 02:26:37;;;;;;;11.23;5.72;;;;;;;3.46;100.00;101163.09;6323653;22;20127;-68
2023/03/15 02:29:02;;;;;;;8.57;5.35;;;;;;;3.40;100.00;101165.91;6295334;22;20090;-69
2023/03/15 02:31:28;;;;;;;8.18;4.07;;;;;;;3.32;100.00;101171.41;6323614;22;20086;-67
2023/03/15 02:33:54;;;;;;;14.30;6.43;;;;;;;3.37;100.00;101169.53;6270493;22;20072;-67
2023/03/15 02:36:23;;;;;;;12.38;4.82;;;;;;;3.33;100.00;101170.50;6295592;22;20015;-67
2023/03/15 02:38:50;;;;;;;8.18;4.82;;;;;;;3.41;100.00;101173.78;6295892;22;20015;-68
2023/03/15 02:41:41;;;;;;;7.47;4.20;;;;;;;3.66;100.00;101179.19;6323948;22;20341;-66
2023/03/15 02:44:23;;;;;;;8.77;5.15;;;;;;;3.48;100.00;101180.63;6324450;22;20528;-68
2023/03/15 02:46:52;;;;;;;10.32;4.82;;;;;;;3.52;100.00;101176.13;6296462;22;20019;-68
2023/03/15 02:49:25;;;;;;;12.20;5.72;;;;;;;3.45;100.00;101193.88;6297014;22;20023;-68
2023/03/15 02:51:50;;;;;;;11.95;5.50;;;;;;;3.53;100.00;101186.63;6296909;22;20096;-69
2023/03/15 02:54:16;;;;;;;14.10;7.15;;;;;;;3.50;100.00;101189.34;6324710;22;20064;-67
2023/03/15 02:56:41;;;;;;;14.95;7.88;;;;;;;3.64;100.00;101194.22;6270379;22;20022;-68
2023/03/15 02:59:07;;;;;;;15.60;8.00;;;;;;;3.59;100.00;101194.34;6294244;22;20014;-69
2023/03/15 03:01:35;;;;;;;18.40;8.40;;;;;;;3.61;100.00;101194.28;6269341;22;20042;-68
2023/03/15 03:04:01;;;;;;;19.88;10.13;;;;;;;3.52;100.00;101213.03;6323848;22;20827;-69
2023/03/15 03:06:27;;;;;;;17.23;9.77;;;;;;;3.62;100.00;101206.59;6295059;22;20017;-68
2023/03/15 03:08:53;;;;;;;16.45;8.88;;;;;;;3.57;100.00;101222.53;6296361;22;20023;-67
2023/03/15 03:11:19;;;;;;;29.40;10.40;;;;;;;3.45;100.00;101224.63;6295383;22;20030;-68
2023/03/15 03:13:44;;;;;;;16.83;9.15;;;;;;;3.51;100.00;101230.59;6295319;22;20615;-69
2023/03/15 03:16:10;;;;;;;16.45;9.20;;;;;;;3.38;100.00;101231.88;6296213;22;20363;-69
2023/03/15 03:18:36;;;;;;;18.95;9.80;;;;;;;3.33;100.00;101242.53;6295136;22;20022;-66
2023/03/15 03:21:05;;;;;;;20.02;10.05;;;;;;;3.52;100.00;101247.31;6294462;22;20022;-67
2023/03/15 03:23:32;;;;;;;23.52;9.45;;;;;;;3.34;100.00;101252.16;6294223;22;20030;-67
2023/03/15 03:25:58;;;;;;;19.85;9.63;;;;;;;3.44;100.00;101255.41;6294238;22;20073;-68
2023/03/15 03:28:26;;;;;;;20.05;10.73;;;;;;;3.17;100.00;101262.28;6294844;22;20468;-67
2023/03/15 03:30:52;;;;;;;19.15;9.40;;;;;;;3.10;100.00;101266.84;6294562;22;20488;-68
2023/03/15 03:33:18;;;;;;;19.95;10.30;;;;;;;3.23;100.00;101272.66;6294597;22;20069;-68
2023/03/15 03:35:46;;;;;;;16.60;9.10;;;;;;;3.30;100.00;101270.72;6295085;22;20014;-70
2023/03/15 03:38:12;;;;;;;18.92;9.98;;;;;;;3.09;100.00;101277.44;6323603;22;20037;-68
2023/03/15 03:40:42;;;;;;;20.33;10.05;;;;;;;3.15;100.00;101279.03;6295495;22;20086;-68
2023/03/15 03:43:08;;;;;;;21.42;10.73;;;;;;;2.96;100.00;101279.53;6323094;22;20011;-70
2023/03/15 03:45:34;;;;;;;20.48;10.20;;;;;;;3.00;100.00;101285.56;6323447;22;20011;-69
2023/03/15 03:48:00;;;;;;;22.10;10.25;;;;;;;2.91;100.00;101291.91;6295688;22;20019;-69
2023/03/15 03:50:27;;;;;;;21.95;10.73;;;;;;;2.89;100.00;101292.88;6295809;22;20011;-69
2023/03/15 03:52:52;;;;;;;24.42;9.50;;;;;;;2.83;100.00;101286.84;6295125;22;20022;-69
2023/03/15 03:55:23;;;;;;;22.25;10.82;;;;;;;2.94;100.00;101290.97;6295865;22;20525;-69
2023/03/15 03:57:51;;;;;;;23.60;11.32;;;;;;;2.77;100.00;101300.16;6295819;22;20015;-70
2023/03/15 04:00:29;;;;;;;23.92;10.45;;;;;;;2.75;100.00;101299.31;6297257;22;20454;-69
2023/03/15 04:02:55;;;;;;;24.15;11.63;;;;;;;2.73;100.00;101316.06;6297726;22;20025;-71
2023/03/15 04:05:21;;;;;;;25.63;10.75;;;;;;;2.73;100.00;101311.66;6326093;22;20018;-69
2023/03/15 04:07:46;;;;;;;27.20;11.98;;;;;;;2.70;100.00;101317.00;6297746;22;20490;-68
2023/03/15 04:10:15;;;;;;;23.30;10.70;;;;;;;2.68;100.00;101328.47;6298087;22;20490;-69
2023/03/15 04:12:44;;;;;;;23.83;11.07;;;;;;;2.57;100.00;101321.69;6299207;22;20019;-71
2023/03/15 04:15:11;;;;;;;22.73;10.90;;;;;;;2.64;100.00;101330.31;6326184;22;20017;-69
2023/03/15 04:17:38;;;;;;;22.60;10.85;;;;;;;2.58;100.00;101338.34;6297744;22;20667;-72
2023/03/15 04:20:07;;;;;;;23.70;10.30;;;;;;;2.41;100.00;101348.34;6297727;22;20448;-70
2023/03/15 04:22:35;;;;;;;19.63;10.07;;;;;;;2.61;100.00;101343.56;6188290;22;20017;-69
2023/03/15 04:25:31;;;;;;;20.02;9.52;;;;;;;2.41;100.00;101338.72;6298203;22;20057;-70
2023/03/15 04:28:21;;;;;;;19.63;10.35;;;;;;;2.31;100.00;101342.47;6326586;22;20808;-70
2023/03/15 04:31:00;;;;;;;25.08;9.82;;;;;;;2.28;100.00;101346.00;6325943;22;20011;-70
2023/03/15 04:33:48;;;;;;;21.95;10.30;;;;;;;2.36;100.00;101352.84;6295551;22;20023;-70
2023/03/15 04:36:33;;;;;;;24.08;11.57;;;;;;;2.39;100.00;101358.94;6325841;22;20063;-69
2023/03/15 04:39:11;;;;;;;18.35;9.75;;;;;;;2.37;100.00;101359.88;6324023;22;20329;-69
2023/03/15 04:41:50;;;;;;;23.92;11.57;;;;;;;2.58;100.00;101368.16;6297072;22;20741;-70
2023/03/15 04:44:40;;;;;;;25.55;10.63;;;;;;;2.30;100.00;101372.28;6297401;22;20018;-69
2023/03/15 04:47:08;;;;;;;19.98;9.73;;;;;;;1.89;100.00;101386.25;6325858;22;20023;-69
2023/03/15 04:49:48;;;;;;;22.50;9.88;;;;;;;2.45;100.00;101382.47;6298561;22;20516;-69
2023/03/15 04:52:29;;;;;;;24.08;10.90;;;;;;;2.60;100.00;101389.19;6326788;22;20015;-68
2023/03/15 04:55:13;;;;;;;20.35;9.30;;;;;;;2.63;100.00;101381.22;6325666;22;20108;-70
2023/03/15 04:57:58;;;;;;;20.55;11.07;;;;;;;2.62;100.00;101379.50;6325817;22;20021;-69
2023/03/15 05:00:39;;;;;;;24.75;10.23;;;;;;;2.78;100.00;101382.66;6325624;22;20425;-69
2023/03/15 05:03:33;;;;;;;22.23;9.57;;;;;;;2.72;100.00;101388.94;6300104;22;20027;-69
2023/03/15 05:06:16;;;;;;;24.73;10.38;;;;;;;2.75;100.00;101385.34;6296166;22;20030;-69
2023/03/15 05:09:00;;;;;;;19.77;10.07;;;;;;;2.49;100.00;101399.09;6323835;22;20781;-70
2023/03/15 05:11:58;;;;;;;24.02;10.35;;;;;;;2.44;100.00;101404.44;6287594;22;20027;-68
2023/03/15 05:14:42;;;;;;;28.65;11.52;;;;;;;2.63;100.00;101406.69;6322821;22;20115;-69
2023/03/15 05:17:27;;;;;;;32.13;11.48;;;;;;;2.73;100.00;101409.09;6322645;22;20035;-69
2023/03/15 05:20:00;;;;;;;20.75;10.98;;;;;;;2.66;100.00;101417.13;6333181;22;20025;-67
2023/03/15 05:22:35;;;;;;;26.10;11.50;;;;;;;2.76;100.00;101421.31;6271228;22;20027;-70
2023/03/15 05:25:28;;;;;;;26.75;11.23;;;;;;;2.78;100.00;101427.41;6294843;22;20457;-68
2023/03/15 05:28:09;;;;;;;25.07;11.20;;;;;;;2.79;100.00;101437.91;6295548;22;20050;-69
2023/03/15 05:31:04;;;;;;;25.50;13.18;;;;;;;2.98;100.00;101437.53;6212139;22;20662;-69
2023/03/15 05:33:53;;;;;;;28.60;12.48;;;;;;;2.72;100.00;101432.81;6297412;22;20025;-70
2023/03/15 05:36:49;;;;;;;25.77;11.60;;;;;;;2.83;100.00;101446.63;6240978;22;20505;-69
2023/03/15 05:39:18;;;;;;;27.80;12.43;;;;;;;2.80;100.00;101447.53;6325566;22;20491;-69
2023/03/15 05:42:00;;;;;;;33.20;13.43;;;;;;;2.66;100.00;101452.25;6297563;22;20063;-69
2023/03/15 05:44:46;;;;;;;27.38;11.35;;;;;;;2.89;100.00;101458.78;6308113;22;20103;-69
2023/03/15 05:47:19;;;;;;;25.75;13.02;;;;;;;2.81;100.00;101456.31;6336054;22;20019;-68
2023/03/15 05:50:01;;;;;;;29.80;13.25;;;;;;;2.76;100.00;101456.44;6292220;22;20019;-69
2023/03/15 05:52:58;;;;;;;32.20;12.57;;;;;;;2.70;100.00;101460.94;6307497;22;20026;-68
2023/03/15 05:55:37;;;;;;;33.80;13.02;;;;;;;2.81;100.00;101453.66;6325525;22;20021;-68
2023/03/15 05:58:24;;;;;;;28.80;12.38;;;;;;;2.76;100.00;101456.44;6297170;22;20399;-67
2023/03/15 06:01:08;;;;;;;34.13;13.73;;;;;;;2.92;100.00;101464.88;6325230;22;20029;-67
2023/03/15 06:03:52;;;;;;;30.05;14.60;;;;;;;3.00;100.00;101460.28;6291992;22;20026;-69
2023/03/15 06:06:23;;;;;;;32.50;14.60;;;;;;;3.06;100.00;101467.19;6292287;22;20480;-69
2023/03/15 06:08:49;;;;;;;30.90;13.75;;;;;;;3.05;100.00;101473.34;6291368;22;20019;-69
2023/03/15 06:11:14;;;;;;;31.55;13.77;;;;;;;3.02;100.00;101479.56;6260132;22;20021;-67
2023/03/15 06:13:39;;;;;;;35.47;14.00;;;;;;;3.19;100.00;101473.91;6256045;22;20024;-68
2023/03/15 06:16:13;;;;;;;26.25;12.82;;;;;;;3.14;100.00;101480.19;6135015;22;20013;-67
2023/03/15 06:18:42;;;;;;;30.83;13.35;;;;;;;3.24;100.00;101474.69;6135362;22;20020;-68
2023/03/15 06:21:08;;;;;;;29.17;13.23;;;;;;;3.27;100.00;101485.16;6138652;23;20021;-68
2023/03/15 06:23:34;;;;;;;28.33;12.63;;;;;;;3.35;100.00;101488.47;6140088;22;20503;-68
2023/03/15 06:25:59;;;;;;;28.02;13.05;;;;;;;3.21;100.00;101492.31;6166977;23;20020;-69
2023/03/15 06:28:27;;;;;;;30.63;13.13;;;;;;;3.42;100.00;101498.91;6139774;23;20825;-68
2023/03/15 06:30:55;;;;;;;27.80;12.35;;;;;;;3.27;100.00;101508.88;6166653;22;20138;-70
2023/03/15 06:33:26;;;;;;;29.38;12.82;;;;;;;3.37;100.00;101502.50;6109854;23;20045;-69
2023/03/15 06:35:52;;;;;;;25.35;12.65;;;;;;;3.34;100.00;101523.63;6109583;23;20029;-69
2023/03/15 06:38:18;;;;;;;27.17;13.50;;;;;;;2.99;100.00;101527.03;6136727;22;20470;-70
2023/03/15 06:40:43;;;;;;;32.60;14.13;;;;;;;3.15;100.00;101519.66;6109334;23;20025;-69
2023/03/15 06:43:13;;;;;;;25.08;11.52;;;;;;;3.15;100.00;101531.97;6109376;23;20024;-69
2023/03/15 06:45:39;;;;;;;25.63;11.57;;;;;;;3.31;100.00;101531.63;6110594;23;20021;-68
2023/03/15 06:48:05;;;;;;;30.58;12.95;;;;;;;3.64;100.00;101529.97;6110230;23;20014;-72
2023/03/15 06:50:30;;;;;;;34.00;12.65;;;;;;;3.85;100.00;101530.34;6110153;23;20528;-69
2023/03/15 06:52:56;;;;;;;26.75;10.70;;;;;;;3.57;100.00;101536.31;6136242;23;20024;-69
2023/03/15 06:55:22;;;;;;;24.20;11.35;;;;;;;3.96;100.00;101530.09;6109603;23;20025;-70
2023/03/15 06:57:47;;;;;;;21.33;9.10;;;;;;;4.28;100.00;101538.06;6108933;23;20021;-69
2023/03/15 07:00:13;;;;;;;25.85;9.13;;;;;;;4.26;100.00;101531.94;6136113;23;20044;-70
2023/03/15 07:02:39;;;;;;;17.52;8.75;;;;;;;4.33;100.00;101540.59;6135920;22;20117;-68
2023/03/15 07:05:05;;;;;;;20.13;8.75;;;;;;;4.41;100.00;101547.38;6108638;23;20402;-70
2023/03/15 07:07:31;;;;;;;19.40;8.35;;;;;;;5.08;100.00;101541.16;6135717;23;20016;-69
2023/03/15 07:09:56;;;;;;;16.23;6.78;;;;;;;5.16;100.00;101540.00;6135015;23;20116;-69
2023/03/15 07:12:22;;;;;;;13.00;5.43;;;;;;;5.19;100.00;101552.25;6135505;23;20056;-69
2023/03/15 07:14:48;;;;;;;15.40;6.97;;;;;;;5.27;100.00;101555.56;6135632;22;20021;-67
2023/03/15 07:17:14;;;;;;;11.90;5.53;;;;;;;5.06;100.00;101567.59;6109564;23;20017;-69
2023/03/15 07:19:39;;;;;;;13.27;5.57;;;;;;;5.70;100.00;101556.88;6135924;23;20022;-68
2023/03/15 07:22:05;;;;;;;13.30;5.93;;;;;;;5.45;100.00;101578.78;6262711;22;20017;-69
2023/03/15 07:24:30;;;;;;;17.15;6.78;;;;;;;6.05;100.00;101568.13;6135283;23;20025;-69
2023/03/15 07:26:56;;;;;;;12.40;5.75;;;;;;;5.63;100.00;101580.00;6135922;23;20018;-69
2023/03/15 07:29:22;;;;;;;18.70;5.32;;;;;;;5.38;100.00;101584.31;6135711;23;20017;-70
2023/03/15 07:31:48;;;;;;;11.15;6.15;;;;;;;5.59;100.00;101583.66;6135592;23;20410;-68
2023/03/15 07:34:14;;;;;;;12.80;5.13;;;;;;;5.60;100.00;101584.53;6137138;23;20032;-70
2023/03/15 07:36:40;;;;;;;21.45;8.60;;;;;;;5.90;100.00;101583.56;6136923;23;20433;-70
2023/03/15 07:39:05;;;;;;;13.20;4.78;;;;;;;5.96;100.00;101587.81;6137837;23;20084;-69
2023/03/15 07:41:30;;;;;;;16.58;4.65;;;;;;;6.06;100.00;101597.19;6136878;22;20060;-69
2023/03/15 07:44:05;;;;;;;10.52;3.45;;;;;;;6.15;100.00;101599.53;6109873;23;20129;-68
2023/03/15 07:46:30;;;;;;;9.15;3.47;;;;;;;6.12;100.00;101601.41;6136922;23;20092;-69
2023/03/15 07:48:55;;;;;;;8.60;3.38;;;;;;;6.05;100.00;101610.50;6137168;23;20919;-68
2023/03/15 07:51:21;;;;;;;9.70;3.70;;;;;;;6.16;100.00;101605.72;6136119;23;20514;-69
2023/03/15 07:53:46;;;;;;;9.30;4.90;;;;;;;6.28;100.00;101610.63;6135853;23;20018;-67
2023/03/15 07:56:12;;;;;;;12.18;4.38;;;;;;;7.25;100.00;101616.91;6136363;23;20017;-69
2023/03/15 07:58:37;;;;;;;9.18;3.80;;;;;;;6.60;100.00;101624.56;6136131;22;20075;-73
2023/03/15 08:01:03;;;;;;;8.35;4.47;;;;;;;6.84;100.00;101625.50;6136199;23;20714;-68
2023/03/15 08:03:28;;;;;;;8.77;4.20;;;;;;;6.49;100.00;101633.72;6135891;23;20546;-67
2023/03/15 08:05:54;;;;;;;7.93;3.80;;;;;;;6.59;100.00;101633.44;6135776;23;20095;-68
2023/03/15 08:08:19;;;;;;;6.15;3.67;;;;;;;7.09;100.00;101638.75;6109842;23;20025;-68
2023/03/15 08:10:45;;;;;;;10.60;3.80;;;;;;;6.81;100.00;101637.06;6136208;23;20060;-68
2023/03/15 08:13:11;;;;;;;8.27;4.18;;;;;;;6.91;100.00;101650.84;6135705;23;20406;-68
2023/03/15 08:15:37;;;;;;;14.13;4.18;;;;;;;7.39;100.00;101656.19;6264744;22;20787;-69
2023/03/15 08:18:03;;;;;;;10.40;4.35;;;;;;;7.55;100.00;101651.16;6135617;23;20021;-70
2023/03/15 08:20:29;;;;;;;11.60;4.43;;;;;;;6.89;100.00;101655.34;6135592;23;20014;-65
2023/03/15 08:22:54;;;;;;;10.82;5.50;;;;;;;7.03;100.00;101662.81;6136012;22;20067;-67
2023/03/15 08:25:22;;;;;;;12.13;4.93;;;;;;;6.67;100.00;101664.03;6136120;23;20096;-70
2023/03/15 08:27:48;;;;;;;9.27;4.20;;;;;;;7.29;100.00;101661.88;6136277;23;20808;-68
2023/03/15 08:30:15;;;;;;;14.05;5.15;;;;;;;7.35;100.00;101666.97;6136326;23;20097;-68
2023/03/15 08:32:43;;;;;;;9.95;4.55;;;;;;;7.17;100.00;101679.09;6136385;23;20014;-68
2023/03/15 08:35:11;;;;;;;9.00;4.15;;;;;;;7.22;100.00;101675.34;6136082;23;20022;-69
2023/03/15 08:37:37;;;;;;;7.68;3.63;;;;;;;6.70;100.00;101682.47;6136236;23;20020;-69
2023/03/15 08:40:09;;;;;;;12.15;5.78;;;;;;;6.83;100.00;101677.66;6136414;23;20025;-69
2023/03/15 08:42:36;;;;;;;12.50;3.45;;;;;;;6.69;100.00;101679.91;6136700;22;20021;-70
2023/03/15 08:45:03;;;;;;;10.88;4.25;;;;;;;6.63;100.00;101686.28;6109532;23;20053;-69
2023/03/15 08:47:28;;;;;;;12.20;4.47;;;;;;;7.36;100.00;101679.31;6137108;23;20018;-67
2023/03/15 08:49:54;;;;;;;8.65;4.10;;;;;;;7.27;100.00;101681.34;6137315;22;20024;-68
2023/03/15 08:52:20;;;;;;;11.88;4.85;;;;;;;7.45;100.00;101678.97;6135901;23;20013;-69
2023/03/15 08:54:46;;;;;;;9.63;4.35;;;;;;;7.88;100.00;101680.00;6136424;23;20017;-66
2023/03/15 08:57:11;;;;;;;8.95;3.80;;;;;;;7.77;100.00;101689.22;6110434;23;20013;-67
2023/03/15 08:59:38;;;;;;;11.93;3.80;;;;;;;7.72;97.35;101685.88;6109342;23;20022;-67
2023/03/15 09:02:03;;;;;;;8.48;2.42;;;;;;;7.76;94.65;101687.50;6109692;23;20348;-65
2023/03/15 09:04:30;;;;;;;14.52;3.72;;;;;;;7.56;91.21;101702.47;6136157;23;20017;-67
2023/03/15 09:06:55;;;;;;;7.28;2.50;;;;;;;7.85;89.52;101704.88;6264511;22;20079;-69
2023/03/15 09:09:21;;;;;;;11.93;2.45;;;;;;;7.35;87.19;101710.28;6136800;22;20013;-67
2023/03/15 09:11:46;;;;;;;8.80;3.13;;;;;;;7.74;88.61;101709.75;6104924;23;20081;-67
2023/03/15 09:14:12;;;;;;;5.88;1.95;;;;;;;8.00;87.41;101700.78;6106993;23;20013;-66
2023/03/15 09:16:37;;;;;;;7.43;2.67;;;;;;;7.84;87.57;101712.91;6106797;23;20037;-67
2023/03/15 09:19:02;;;;;;;7.90;3.05;;;;;;;7.79;86.24;101708.66;6107204;23;20421;-66
2023/03/15 09:21:28;;;;;;;9.35;2.80;;;;;;;7.86;87.60;101711.91;6106457;23;20022;-66
2023/03/15 09:23:53;;;;;;;6.72;2.17;;;;;;;8.05;88.71;101712.09;6107039;23;20441;-65
2023/03/15 09:26:19;;;;;;;17.88;3.80;;;;;;;8.35;88.98;101711.81;6105545;23;20655;-68
2023/03/15 09:28:44;;;;;;;7.60;2.45;;;;;;;8.19;86.31;101714.22;6107593;23;20063;-65
2023/03/15 09:31:10;;;;;;;7.05;2.85;;;;;;;8.39;88.15;101709.00;6107385;23;20764;-67
2023/03/15 09:33:36;;;;;;;9.50;2.95;;;;;;;8.51;89.98;101715.59;6107329;23;20025;-70
2023/03/15 09:36:01;;;;;;;7.07;1.98;;;;;;;7.74;79.55;101720.38;6107054;23;20026;-69
2023/03/15 09:38:27;;;;;;;7.55;1.45;;;;;;;8.27;81.50;101706.78;6107051;23;20021;-68
2023/03/15 09:41:00;;;;;;;9.35;1.77;;;;;;;8.63;82.55;101714.22;6105556;23;20018;-67
2023/03/15 09:43:54;;;;;;;7.43;2.20;;;;;;;8.62;78.77;101710.69;6107113;23;20024;-69
2023/03/15 09:46:31;;;;;;;9.30;2.75;;;;;;;8.85;79.71;101719.53;6104477;23;20521;-68
2023/03/15 09:49:00;;;;;;;9.07;1.95;;;;;;;8.53;77.69;101719.94;6106768;23;20050;-69
2023/03/15 09:51:41;;;;;;;4.60;1.73;;;;;;;9.38;74.64;101708.34;6106789;23;20092;-69
2023/03/15 09:54:11;;;;;;;9.80;2.20;;;;;;;9.71;70.82;101716.63;6106161;23;20014;-69
2023/03/15 09:57:01;;;;;;;7.72;2.40;;;;;;;8.29;68.98;101718.22;6105883;23;20018;-69
2023/03/15 09:59:38;;;;;;;13.43;1.73;;;;;;;7.80;72.58;101722.78;6121641;22;20022;-68
2023/03/15 10:02:20;;;;;;;7.03;2.35;;;;;;;7.60;71.45;101730.63;6106684;23;20025;-67
2023/03/15 10:04:48;;;;;;;6.90;1.70;;;;;;;7.33;72.74;101730.72;6106822;23;20013;-68
2023/03/15 10:07:15;;;;;;;9.50;2.10;;;;;;;8.52;69.86;101723.50;6106396;23;20074;-68
2023/03/15 10:09:42;;;;;;;3.92;1.50;;;;;;;8.59;68.35;101726.78;6106365;23;20022;-69
2023/03/15 10:12:09;;;;;;;9.20;2.03;;;;;;;8.72;66.92;101717.38;6109256;23;20028;-68
2023/03/15 10:14:40;;;;;;;8.45;1.52;;;;;;;8.67;68.86;101715.84;6135869;23;20177;-68
2023/03/15 10:17:15;;;;;;;5.85;1.95;;;;;;;9.27;74.84;101724.78;6136258;23;20063;-68
2023/03/15 10:19:48;;;;;;;12.27;2.67;;;;;;;9.25;72.00;101719.53;6134814;23;20022;-66
2023/03/15 10:22:26;;;;;;;5.45;1.85;;;;;;;8.96;66.95;101725.25;6135617;23;20028;-67
2023/03/15 10:25:00;;;;;;;10.90;2.97;;;;;;;9.45;73.67;101729.31;6109335;23;20799;-67
2023/03/15 10:27:36;;;;;;;10.68;2.33;;;;;;;9.59;68.25;101726.03;6136204;22;20024;-68
2023/03/15 10:30:14;;;;;;;12.45;2.47;;;;;;;9.77;67.70;101719.00;6136177;22;20022;-67
2023/03/15 10:32:42;;;;;;;5.93;1.52;;;;;;;10.20;65.62;101722.34;6136162;23;20035;-69
2023/03/15 10:35:15;;;;;;;14.68;2.58;;;;;;;10.06;68.77;101733.63;6135812;23;20032;-67
2023/03/15 10:37:41;;;;;;;5.50;1.77;;;;;;;9.60;64.13;101719.78;6108682;23;20116;-67
2023/03/15 10:40:14;;;;;;;5.78;1.55;;;;;;;9.85;62.97;101730.19;6134696;23;20014;-68
2023/03/15 10:42:43;;;;;;;4.78;1.45;;;;;;;9.33;58.22;101717.41;6135737;23;20018;-68
2023/03/15 10:45:19;;;;;;;4.82;1.73;;;;;;;9.41;58.02;101717.06;6135888;23;20541;-67
2023/03/15 10:47:46;;;;;;;7.03;1.60;;;;;;;8.51;61.15;101724.44;6135297;23;20029;-68
2023/03/15 10:50:32;;;;;;;7.65;1.80;;;;;;;9.18;65.71;101728.72;6135097;23;20025;-68
2023/03/15 10:53:01;;;;;;;4.22;1.80;;;;;;;9.58;63.03;101733.13;6135113;23;20123;-67
2023/03/15 10:55:35;;;;;;;7.70;1.63;;;;;;;10.04;58.54;101716.84;6135166;22;20020;-67
2023/03/15 10:58:26;;;;;;;13.23;2.65;;;;;;;10.13;64.92;101729.75;6135276;23;20104;-66
2023/03/15 11:01:08;;;;;;;5.72;1.42;;;;;;;10.03;58.09;101729.31;6122109;23;20030;-68
2023/03/15 11:03:35;;;;;;;8.23;2.75;;;;;;;9.51;56.58;101730.84;6135840;23;20028;-69
2023/03/15 11:06:01;;;;;;;7.40;1.20;;;;;;;9.36;56.94;101740.38;6135345;23;20526;-69
2023/03/15 11:08:39;;;;;;;3.03;1.05;;;;;;;8.94;56.38;101751.06;6136457;22;20021;-68
2023/03/15 11:11:07;;;;;;;5.80;2.35;;;;;;;9.28;53.57;101743.34;6136659;23;20018;-68
2023/03/15 11:13:35;;;;;;;4.65;2.03;;;;;;;8.55;55.25;101751.78;6137537;23;20017;-67
2023/03/15 11:16:12;;;;;;;7.30;2.00;;;;;;;8.38;54.46;101755.06;6137000;23;20646;-69
2023/03/15 11:18:55;;;;;;;3.67;1.20;;;;;;;8.74;58.33;101760.72;6138186;23;20036;-68
2023/03/15 11:21:25;;;;;;;9.23;1.27;;;;;;;8.89;51.99;101748.59;6137428;22;20021;-69
2023/03/15 11:23:51;;;;;;;7.40;1.10;;;;;;;8.92;52.56;101755.56;6137468;23;20339;-69
2023/03/15 11:26:25;;;;;;;12.80;2.05;;;;;;;8.97;55.31;101769.53;6136989;23;20014;-70
2023/03/15 11:28:54;;;;;;;4.10;1.45;;;;;;;9.10;54.37;101761.94;6137451;23;20021;-69
2023/03/15 11:31:23;;;;;;;7.10;1.23;;;;;;;9.05;50.33;101760.31;6137250;23;20021;-69
2023/03/15 11:34:10;;;;;;;5.57;1.48;;;;;;;8.74;52.54;101767.84;6137283;23;20067;-68